Time;durP1;ratioP1;P1;durP2;ratioP2;P2;SDS_P1;SDS_P2;PMS_P1;PMS_P2;Temp;Humidity;BMP_temperature;BMP_pressure;BME280_temperature;BME280_humidity;BME280_pressure;Samples;Min_cycle;Max_cycle;Signal;HPM_P1;HPM_P2
2024/04/10 00:00:47;;;;;;;1.20;0.77;;;16.20;90.60;;;;;;5281576;27;20002;-78
2024/04/10 00:03:16;;;;;;;1.70;0.70;;;16.30;90.60;;;;;;5312080;27;20012;-78
2024/04/10 00:05:56;;;;;;;1.23;0.63;;;16.40;90.60;;;;;;5312018;27;20005;-78
2024/04/10 00:08:21;;;;;;;1.52;0.75;;;16.30;90.60;;;;;;5281897;27;20342;-78
2024/04/10 00:10:48;;;;;;;2.45;0.85;;;16.30;90.60;;;;;;5311876;27;20005;-77
2024/04/10 00:13:17;;;;;;;0.90;0.70;;;16.30;90.70;;;;;;5311303;27;20472;-78
2024/04/10 00:15:42;;;;;;;0.85;0.55;;;16.30;90.60;;;;;;5312012;27;20080;-78
2024/04/10 00:18:08;;;;;;;1.25;0.60;;;16.30;90.60;;;;;;5312226;27;20009;-78
2024/04/10 00:20:34;;;;;;;1.90;0.80;;;16.30;90.60;;;;;;5281372;27;19997;-77
2024/04/10 00:23:02;;;;;;;1.20;0.70;;;16.40;90.70;;;;;;5281637;27;20013;-77
2024/04/10 00:25:28;;;;;;;1.63;0.77;;;16.30;90.60;;;;;;5281348;27;20039;-77
2024/04/10 00:27:53;;;;;;;1.25;0.70;;;16.40;90.60;;;;;;5311450;27;20002;-77
2024/04/10 00:30:19;;;;;;;2.05;0.80;;;16.40;90.60;;;;;;5310934;27;19997;-79
2024/04/10 00:32:47;;;;;;;1.30;0.70;;;16.30;90.40;;;;;;5281887;27;20002;-77
2024/04/10 00:35:13;;;;;;;1.38;0.80;;;16.30;90.60;;;;;;5311977;27;20001;-77
2024/04/10 00:37:38;;;;;;;1.75;0.82;;;16.30;90.60;;;;;;5281418;27;20118;-77
2024/04/10 00:40:05;;;;;;;1.52;0.75;;;16.30;90.60;;;;;;5311023;27;20781;-77
2024/04/10 00:42:30;;;;;;;1.65;0.73;;;16.30;90.60;;;;;;5311339;27;20013;-78
2024/04/10 00:44:56;;;;;;;1.27;0.60;;;16.30;90.50;;;;;;5281358;27;19998;-77
2024/04/10 00:47:25;;;;;;;1.50;0.73;;;16.30;90.50;;;;;;5311328;27;19998;-78
2024/04/10 00:49:51;;;;;;;1.77;0.88;;;16.30;90.50;;;;;;5280792;27;19997;-77
2024/04/10 00:52:18;;;;;;;1.02;0.70;;;16.30;90.50;;;;;;5311605;27;20002;-78
2024/04/10 00:54:45;;;;;;;1.48;0.70;;;16.30;90.50;;;;;;5311264;27;20009;-78
2024/04/10 00:57:11;;;;;;;2.95;1.08;;;16.30;90.50;;;;;;5311546;27;20008;-78
2024/04/10 00:59:37;;;;;;;1.40;0.80;;;16.30;90.50;;;;;;5311209;27;20794;-78
2024/04/10 01:02:04;;;;;;;2.70;1.20;;;16.40;90.50;;;;;;5311277;27;20068;-78
2024/04/10 01:04:30;;;;;;;1.60;0.70;;;16.30;90.50;;;;;;5310935;27;19998;-78
2024/04/10 01:06:56;;;;;;;2.05;0.73;;;16.20;90.50;;;;;;5311204;27;19994;-78
2024/04/10 01:09:21;;;;;;;2.65;0.90;;;16.30;90.60;;;;;;5280717;27;20379;-77
2024/04/10 01:11:47;;;;;;;2.38;0.80;;;16.30;90.40;;;;;;5311011;27;20075;-77
2024/04/10 01:14:13;;;;;;;1.17;0.68;;;16.30;90.50;;;;;;5280360;27;20072;-76
2024/04/10 01:16:38;;;;;;;1.77;0.70;;;16.30;90.50;;;;;;5311122;27;20417;-78
2024/04/10 01:19:06;;;;;;;1.95;1.00;;;16.30;90.60;;;;;;5280662;27;20013;-77
2024/04/10 01:21:31;;;;;;;3.45;1.10;;;16.30;90.50;;;;;;5280212;27;20026;-77
2024/04/10 01:23:57;;;;;;;1.33;0.80;;;16.30;90.60;;;;;;5310866;27;19998;-77
2024/04/10 01:26:23;;;;;;;1.42;0.60;;;16.30;90.60;;;;;;5280701;27;19998;-77
2024/04/10 01:28:48;;;;;;;1.92;0.80;;;16.30;90.60;;;;;;5280509;27;20342;-77
2024/04/10 01:31:14;;;;;;;1.80;0.80;;;16.30;90.40;;;;;;5310273;27;20010;-77
2024/04/10 01:33:39;;;;;;;1.55;0.90;;;16.30;90.50;;;;;;5280251;27;20006;-78
2024/04/10 01:36:06;;;;;;;1.63;0.80;;;16.30;90.40;;;;;;5310814;27;20010;-77
2024/04/10 01:38:31;;;;;;;2.80;0.90;;;16.30;90.60;;;;;;5310426;27;20008;-78
2024/04/10 01:40:57;;;;;;;2.60;0.82;;;16.30;90.60;;;;;;5282455;27;19994;-78
2024/04/10 01:43:22;;;;;;;1.45;0.80;;;16.30;90.50;;;;;;5283594;27;19998;-77
2024/04/10 01:45:48;;;;;;;1.90;0.70;;;16.20;90.60;;;;;;5314139;27;20002;-78
2024/04/10 01:48:14;;;;;;;1.70;0.80;;;16.30;90.60;;;;;;5313824;27;20002;-78
2024/04/10 01:50:39;;;;;;;1.73;0.85;;;16.30;90.60;;;;;;5313592;27;20513;-77
2024/04/10 01:53:05;;;;;;;1.52;0.70;;;16.30;90.70;;;;;;5283769;27;20354;-77
2024/04/10 01:55:30;;;;;;;2.83;0.90;;;16.20;90.60;;;;;;5313948;27;20012;-77
2024/04/10 01:57:56;;;;;;;1.33;0.77;;;16.30;90.90;;;;;;5283593;27;20002;-77
2024/04/10 02:00:24;;;;;;;2.67;0.90;;;16.20;90.60;;;;;;5313406;27;20005;-78
2024/04/10 02:02:50;;;;;;;1.88;0.90;;;16.30;90.70;;;;;;5283125;27;19994;-78
2024/04/10 02:05:15;;;;;;;2.22;1.10;;;16.20;90.60;;;;;;5313398;27;19998;-78
2024/04/10 02:07:41;;;;;;;1.92;0.80;;;16.30;90.60;;;;;;5313610;27;20886;-77
2024/04/10 02:10:07;;;;;;;2.25;0.80;;;16.30;90.70;;;;;;5297177;27;20006;-78
2024/04/10 02:12:33;;;;;;;1.65;0.85;;;16.30;90.60;;;;;;5249006;27;20017;-77
2024/04/10 02:14:58;;;;;;;2.00;0.70;;;16.30;90.60;;;;;;5249142;27;20072;-77
2024/04/10 02:17:24;;;;;;;4.07;1.13;;;16.30;90.60;;;;;;5279236;27;20080;-77
2024/04/10 02:19:50;;;;;;;1.83;0.70;;;16.20;90.70;;;;;;5248795;27;20014;-78
2024/04/10 02:22:16;;;;;;;2.35;0.90;;;16.30;90.70;;;;;;5279093;27;20010;-78
2024/04/10 02:24:41;;;;;;;2.45;0.80;;;16.10;90.50;;;;;;5278830;27;19998;-77
2024/04/10 02:27:07;;;;;;;1.73;0.88;;;16.30;90.70;;;;;;5278893;27;20002;-78
2024/04/10 02:29:33;;;;;;;2.78;0.90;;;16.20;90.70;;;;;;5278636;27;20002;-77
2024/04/10 02:31:59;;;;;;;1.60;0.70;;;16.10;90.60;;;;;;5248567;27;20030;-77
2024/04/10 02:34:25;;;;;;;2.25;0.80;;;16.30;90.70;;;;;;5278377;27;20554;-77
2024/04/10 02:36:51;;;;;;;2.28;0.90;;;16.20;90.70;;;;;;5248434;27;20070;-78
2024/04/10 02:39:16;;;;;;;1.27;0.70;;;16.30;90.70;;;;;;5278409;27;20006;-77
2024/04/10 02:41:42;;;;;;;3.10;1.00;;;16.30;90.50;;;;;;5277911;27;20002;-79
2024/04/10 02:44:07;;;;;;;2.03;0.80;;;16.30;90.70;;;;;;5278553;27;20010;-77
2024/04/10 02:46:33;;;;;;;2.08;0.90;;;16.20;90.60;;;;;;5279119;27;20355;-77
2024/04/10 02:48:58;;;;;;;2.15;1.00;;;16.20;90.70;;;;;;5249256;27;20414;-77
2024/04/10 02:51:24;;;;;;;2.88;1.10;;;16.10;90.70;;;;;;5248184;27;20013;-78
2024/04/10 02:53:49;;;;;;;2.35;0.80;;;16.30;90.80;;;;;;5278910;27;20046;-77
2024/04/10 02:56:15;;;;;;;1.80;0.73;;;16.30;90.80;;;;;;5279065;27;19998;-77
2024/04/10 02:58:40;;;;;;;2.58;0.90;;;16.10;90.70;;;;;;5278972;27;19998;-79
2024/04/10 03:01:11;;;;;;;1.40;0.90;;;16.30;90.70;;;;;;5278570;27;20044;-78
2024/04/10 03:03:37;;;;;;;1.52;0.80;;;16.20;90.70;;;;;;5248920;27;20007;-77
2024/04/10 03:06:05;;;;;;;2.28;0.63;;;16.30;90.80;;;;;;5248888;27;20002;-77
2024/04/10 03:08:31;;;;;;;2.22;0.85;;;16.20;90.70;;;;;;5279036;27;20077;-77
2024/04/10 03:10:57;;;;;;;2.40;0.95;;;16.10;90.60;;;;;;5278442;27;20073;-77
2024/04/10 03:13:22;;;;;;;2.17;0.93;;;16.30;90.80;;;;;;5278234;27;20411;-78
2024/04/10 03:15:48;;;;;;;1.85;0.73;;;16.10;90.70;;;;;;5276606;27;20018;-78
2024/04/10 03:18:15;;;;;;;2.92;1.00;;;16.10;90.80;;;;;;5275965;27;19998;-77
2024/04/10 03:20:41;;;;;;;2.45;0.75;;;16.20;90.80;;;;;;5276085;27;20009;-81
2024/04/10 03:23:06;;;;;;;2.42;0.82;;;16.10;90.80;;;;;;5249043;27;19998;-78
2024/04/10 03:25:33;;;;;;;2.45;0.80;;;16.20;90.80;;;;;;5276802;27;20395;-79
2024/04/10 03:27:59;;;;;;;1.98;0.80;;;16.30;90.90;;;;;;5304732;27;19998;-80
2024/04/10 03:30:26;;;;;;;3.05;1.00;;;16.20;90.80;;;;;;5282546;27;20048;-79
2024/04/10 03:32:52;;;;;;;2.00;0.93;;;16.20;90.80;;;;;;5283468;27;20017;-78
2024/04/10 03:35:18;;;;;;;3.50;1.00;;;16.20;90.80;;;;;;5311131;26;19993;-79
2024/04/10 03:37:45;;;;;;;3.55;1.00;;;16.20;90.80;;;;;;5283279;27;20003;-80
2024/04/10 03:40:11;;;;;;;2.03;0.90;;;16.20;90.80;;;;;;5312202;27;20001;-80
2024/04/10 03:42:37;;;;;;;1.55;0.90;;;16.10;90.80;;;;;;5314407;27;20006;-80
2024/04/10 03:45:03;;;;;;;1.88;0.77;;;16.20;90.80;;;;;;5283508;27;20012;-80
2024/04/10 03:47:29;;;;;;;2.50;0.90;;;16.20;90.80;;;;;;5280743;27;20075;-82
2024/04/10 03:49:55;;;;;;;2.00;0.90;;;16.20;90.90;;;;;;5310664;27;19997;-79
2024/04/10 03:52:20;;;;;;;1.83;1.02;;;16.20;90.90;;;;;;5294485;27;20528;-79
2024/04/10 03:54:46;;;;;;;1.85;0.73;;;16.20;90.80;;;;;;5279511;27;20454;-80
2024/04/10 03:57:12;;;;;;;2.13;0.98;;;16.20;90.90;;;;;;5246564;27;20597;-78
2024/04/10 03:59:40;;;;;;;2.53;0.90;;;16.30;90.90;;;;;;5276348;27;20491;-78
2024/04/10 04:02:05;;;;;;;1.70;0.70;;;16.20;90.90;;;;;;5245983;27;20076;-81
2024/04/10 04:04:31;;;;;;;1.98;0.90;;;16.30;90.80;;;;;;5244540;27;19998;-77
2024/04/10 04:06:57;;;;;;;2.78;0.98;;;16.20;90.80;;;;;;5242750;27;20147;-80
2024/04/10 04:09:22;;;;;;;1.48;0.70;;;16.20;90.80;;;;;;5273464;27;19994;-77
2024/04/10 04:11:48;;;;;;;2.40;0.90;;;16.20;90.90;;;;;;5272716;27;20006;-77
2024/04/10 04:14:14;;;;;;;2.25;0.90;;;16.20;90.90;;;;;;5242260;27;20571;-77
2024/04/10 04:16:40;;;;;;;2.42;0.90;;;16.20;90.90;;;;;;5241791;27;20072;-78
2024/04/10 04:19:05;;;;;;;2.85;1.10;;;16.20;90.90;;;;;;5271866;27;20014;-78
2024/04/10 04:21:31;;;;;;;3.38;1.10;;;16.20;90.90;;;;;;5272758;27;20522;-78
2024/04/10 04:23:58;;;;;;;1.45;0.80;;;16.20;90.80;;;;;;5274031;27;20002;-78
2024/04/10 04:28:08;;;;;;;2.33;0.90;;;16.20;90.90;;;;;;5579545;25;20071;-76
2024/04/10 04:30:34;;;;;;;2.13;0.90;;;16.20;90.90;;;;;;5542185;25;19989;-76
2024/04/10 04:33:01;;;;;;;3.25;1.35;;;16.20;90.90;;;;;;5540754;25;19999;-75
2024/04/10 04:35:26;;;;;;;2.05;0.80;;;16.20;90.90;;;;;;5504375;25;19993;-75
2024/04/10 04:37:57;;;;;;;2.08;0.73;;;16.20;90.90;;;;;;5504748;25;20005;-76
2024/04/10 04:40:22;;;;;;;2.58;0.90;;;16.20;90.90;;;;;;5502538;26;20092;-76
2024/04/10 04:42:48;;;;;;;2.50;0.98;;;16.10;90.80;;;;;;5503646;26;20008;-75
2024/04/10 04:45:16;;;;;;;1.40;0.80;;;16.20;90.90;;;;;;5504426;26;20002;-75
2024/04/10 04:47:42;;;;;;;2.60;0.90;;;16.20;90.90;;;;;;5504397;25;20034;-77
2024/04/10 04:50:11;;;;;;;1.98;0.88;;;16.10;90.90;;;;;;5503893;26;20334;-76
2024/04/10 04:52:39;;;;;;;2.38;0.82;;;16.20;90.90;;;;;;5502775;26;20002;-78
2024/04/10 04:55:05;;;;;;;2.65;0.93;;;16.20;90.90;;;;;;5504469;25;20013;-76
2024/04/10 04:57:31;;;;;;;2.30;0.88;;;16.20;90.90;;;;;;5505010;25;19994;-75
2024/04/10 05:00:00;;;;;;;3.60;1.00;;;16.20;90.90;;;;;;5502461;26;19998;-77
2024/04/10 05:02:26;;;;;;;2.28;0.82;;;16.20;90.90;;;;;;5505955;25;19993;-75
2024/04/10 05:05:00;;;;;;;2.20;0.90;;;16.20;90.90;;;;;;5503422;25;20070;-75
2024/04/10 05:07:26;;;;;;;1.85;0.85;;;16.20;90.90;;;;;;5504649;25;20447;-75
2024/04/10 05:09:51;;;;;;;2.05;1.10;;;16.10;90.90;;;;;;5504148;26;19994;-76
2024/04/10 05:12:17;;;;;;;2.15;0.90;;;16.20;90.90;;;;;;5503930;26;20005;-76
2024/04/10 05:14:55;;;;;;;2.25;0.90;;;16.20;90.90;;;;;;5502504;25;19993;-76
2024/04/10 05:17:20;;;;;;;2.70;0.80;;;16.20;90.90;;;;;;5503065;26;20013;-76
2024/04/10 05:19:46;;;;;;;1.85;1.02;;;16.20;90.90;;;;;;5502229;26;20029;-76
2024/04/10 05:22:13;;;;;;;2.83;1.00;;;16.10;90.90;;;;;;5502744;26;20068;-76
2024/04/10 05:24:39;;;;;;;3.38;1.00;;;16.20;90.90;;;;;;5504836;25;20004;-77
2024/04/10 05:27:05;;;;;;;2.30;0.90;;;16.10;90.90;;;;;;5504581;25;20030;-76
2024/04/10 05:29:31;;;;;;;2.72;1.10;;;16.20;90.90;;;;;;5503850;25;20070;-76
2024/04/10 05:32:00;;;;;;;6.75;1.10;;;16.10;90.90;;;;;;5502823;26;19993;-76
2024/04/10 05:34:26;;;;;;;13.43;2.17;;;16.20;90.40;;;;;;5504950;25;20446;-76
2024/04/10 05:36:51;;;;;;;13.13;2.33;;;16.00;88.40;;;;;;5504578;25;20020;-78
2024/04/10 05:39:27;;;;;;;11.73;2.25;;;16.00;88.20;;;;;;5488986;26;20621;-75
2024/04/10 05:41:54;;;;;;;9.75;2.28;;;16.10;88.70;;;;;;5490232;26;19994;-76
2024/04/10 05:44:20;;;;;;;9.20;2.15;;;16.10;88.80;;;;;;5486432;26;19994;-76
2024/04/10 05:46:46;;;;;;;8.73;1.67;;;16.10;90.20;;;;;;5488412;26;19994;-76
2024/04/10 05:49:11;;;;;;;8.88;1.83;;;16.10;90.00;;;;;;5487010;26;20002;-76
2024/04/10 05:51:37;;;;;;;8.00;1.70;;;16.10;89.90;;;;;;5489421;26;19998;-76
2024/04/10 05:54:03;;;;;;;8.73;1.77;;;16.10;89.50;;;;;;5490703;26;19998;-76
2024/04/10 05:56:29;;;;;;;6.75;1.50;;;16.10;89.40;;;;;;5492112;26;19994;-76
2024/04/10 05:58:55;;;;;;;5.85;1.50;;;16.20;89.60;;;;;;5489082;26;20018;-76
2024/04/10 06:01:21;;;;;;;8.07;2.10;;;16.20;89.80;;;;;;5488213;26;20017;-76
2024/04/10 06:03:47;;;;;;;7.35;2.13;;;16.20;89.80;;;;;;5488281;26;20010;-76
2024/04/10 06:06:13;;;;;;;8.07;2.08;;;16.20;89.80;;;;;;5488181;26;20061;-76
2024/04/10 06:08:44;;;;;;;10.23;1.77;;;16.20;89.80;;;;;;5517462;26;19994;-76
2024/04/10 06:11:11;;;;;;;6.78;1.65;;;16.20;89.90;;;;;;5487062;26;19997;-76
2024/04/10 06:13:36;;;;;;;8.73;1.67;;;16.20;90.00;;;;;;5487863;26;19990;-76
2024/04/10 06:16:04;;;;;;;6.30;1.65;;;16.20;90.00;;;;;;5516837;26;20005;-77
2024/04/10 06:18:30;;;;;;;8.43;1.67;;;16.20;90.00;;;;;;5487013;26;19990;-75
2024/04/10 06:21:00;;;;;;;6.82;1.60;;;16.10;90.00;;;;;;5516499;26;20449;-76
2024/04/10 06:23:28;;;;;;;6.18;1.75;;;16.20;90.10;;;;;;5487188;26;19998;-76
2024/04/10 06:25:54;;;;;;;7.82;2.00;;;16.10;90.10;;;;;;5487256;26;19994;-76
2024/04/10 06:28:20;;;;;;;8.38;1.60;;;16.20;90.10;;;;;;5487906;26;20010;-76
2024/04/10 06:30:46;;;;;;;7.70;1.23;;;16.20;90.10;;;;;;5516761;26;20034;-77
2024/04/10 06:33:14;;;;;;;8.48;1.50;;;16.20;90.20;;;;;;5487251;26;19998;-77
2024/04/10 06:35:40;;;;;;;6.95;1.75;;;16.20;90.20;;;;;;5487591;26;19994;-76
2024/04/10 06:38:07;;;;;;;8.00;1.70;;;16.20;90.10;;;;;;5488480;26;19998;-76
2024/04/10 06:40:32;;;;;;;5.50;1.40;;;16.20;90.20;;;;;;5487013;26;19994;-76
2024/04/10 06:42:58;;;;;;;5.15;1.20;;;16.20;90.20;;;;;;5516709;26;20060;-76
2024/04/10 06:45:23;;;;;;;4.88;1.20;;;16.20;90.20;;;;;;5516216;26;20793;-76
2024/04/10 06:47:49;;;;;;;5.43;1.58;;;16.20;90.20;;;;;;5488104;26;20008;-76
2024/04/10 06:50:14;;;;;;;6.60;1.30;;;16.10;90.20;;;;;;5516216;26;19990;-76
2024/04/10 06:52:40;;;;;;;6.20;1.35;;;16.20;90.20;;;;;;5487474;26;20009;-76
2024/04/10 06:55:06;;;;;;;4.88;1.42;;;16.20;90.30;;;;;;5516493;26;20082;-75
2024/04/10 06:57:32;;;;;;;4.85;1.33;;;16.20;90.30;;;;;;5487494;26;19994;-76
2024/04/10 07:00:02;;;;;;;4.68;1.20;;;16.20;90.30;;;;;;5487503;26;20026;-76
2024/04/10 07:02:28;;;;;;;5.55;1.23;;;16.20;90.30;;;;;;5487433;26;20009;-76
2024/04/10 07:04:54;;;;;;;3.67;1.33;;;16.10;90.30;;;;;;5487092;26;19994;-76
2024/04/10 07:07:19;;;;;;;6.00;1.50;;;16.10;90.30;;;;;;5484822;26;20005;-76
2024/04/10 07:09:45;;;;;;;4.75;1.55;;;16.10;90.30;;;;;;5486849;26;20343;-76
2024/04/10 07:12:10;;;;;;;4.15;1.40;;;16.10;90.20;;;;;;5487400;26;20005;-76
2024/04/10 07:14:36;;;;;;;4.40;1.50;;;16.20;90.20;;;;;;5487017;26;20059;-76
2024/04/10 07:17:05;;;;;;;6.32;1.25;;;16.20;90.20;;;;;;5515694;26;20396;-76
2024/04/10 07:19:34;;;;;;;5.93;1.23;;;16.20;90.20;;;;;;5518067;26;19990;-76
2024/04/10 07:22:05;;;;;;;4.10;1.20;;;16.20;90.20;;;;;;5488955;26;20094;-76
2024/04/10 07:24:31;;;;;;;4.85;1.55;;;16.20;90.20;;;;;;5487098;26;20002;-76
2024/04/10 07:26:57;;;;;;;3.85;1.17;;;16.20;90.20;;;;;;5487196;26;20067;-76
2024/04/10 07:29:23;;;;;;;3.17;1.30;;;16.30;90.30;;;;;;5515767;26;20030;-75
2024/04/10 07:31:48;;;;;;;4.47;1.40;;;16.30;90.20;;;;;;5487209;26;19990;-76
2024/04/10 07:34:14;;;;;;;4.38;1.20;;;16.30;90.20;;;;;;5515692;26;20001;-77
2024/04/10 07:36:41;;;;;;;4.57;1.40;;;16.20;90.20;;;;;;5487444;26;20458;-76
2024/04/10 07:39:08;;;;;;;4.93;1.30;;;16.30;90.20;;;;;;5515947;26;20009;-79
2024/04/10 07:41:34;;;;;;;4.90;1.20;;;16.30;90.20;;;;;;5515369;26;20012;-76
2024/04/10 07:44:00;;;;;;;3.85;1.20;;;16.40;90.20;;;;;;5487160;26;20752;-77
2024/04/10 07:46:25;;;;;;;4.15;1.30;;;16.40;90.10;;;;;;5515890;26;20010;-76
2024/04/10 07:48:55;;;;;;;4.15;1.30;;;16.40;90.00;;;;;;5515176;26;20076;-79
2024/04/10 07:51:22;;;;;;;3.85;1.30;;;16.40;90.00;;;;;;5514523;26;20067;-76
2024/04/10 07:53:48;;;;;;;3.60;1.13;;;16.50;90.00;;;;;;5484711;26;20013;-78
2024/04/10 07:56:14;;;;;;;3.22;1.20;;;16.50;90.00;;;;;;5517722;26;20001;-76
2024/04/10 07:58:40;;;;;;;3.83;1.10;;;16.60;90.00;;;;;;5486222;26;20034;-76
2024/04/10 08:01:06;;;;;;;4.63;1.42;;;16.50;90.00;;;;;;5470736;26;19995;-77
2024/04/10 08:03:33;;;;;;;7.00;1.25;;;16.50;89.90;;;;;;5484669;26;19994;-77
2024/04/10 08:06:01;;;;;;;6.93;1.40;;;16.60;89.80;;;;;;5486800;26;20001;-76
2024/04/10 08:08:28;;;;;;;3.17;1.10;;;16.60;89.80;;;;;;5486289;26;19986;-76
2024/04/10 08:11:03;;;;;;;4.72;1.30;;;16.60;89.60;;;;;;5486128;26;19994;-76
2024/04/10 08:13:29;;;;;;;3.58;1.20;;;16.60;89.60;;;;;;5484363;26;20058;-76
2024/04/10 08:15:58;;;;;;;3.78;1.00;;;16.70;89.60;;;;;;5483707;26;20014;-76
2024/04/10 08:18:28;;;;;;;3.08;1.20;;;16.70;89.50;;;;;;5485162;26;20022;-76
2024/04/10 08:21:04;;;;;;;3.75;1.20;;;16.70;89.40;;;;;;5485724;26;20009;-76
2024/04/10 08:23:32;;;;;;;3.45;1.15;;;16.70;89.40;;;;;;5484163;26;20503;-76
2024/04/10 08:25:59;;;;;;;1.90;1.08;;;16.60;89.20;;;;;;5485993;26;19994;-77
2024/04/10 08:28:25;;;;;;;4.05;1.33;;;16.80;89.30;;;;;;5486733;26;19994;-76
2024/04/10 08:30:53;;;;;;;2.58;1.13;;;16.80;89.20;;;;;;5483231;26;20009;-76
2024/04/10 08:33:18;;;;;;;3.47;1.25;;;16.90;89.10;;;;;;5486043;26;20783;-76
2024/04/10 08:35:51;;;;;;;3.50;1.10;;;16.90;89.00;;;;;;5483733;26;20069;-76
2024/04/10 08:38:17;;;;;;;4.10;1.30;;;17.00;89.00;;;;;;5484253;26;20009;-78
2024/04/10 08:40:44;;;;;;;3.55;1.40;;;17.00;89.00;;;;;;5483165;26;20538;-76
2024/04/10 08:43:16;;;;;;;3.13;1.10;;;17.00;88.90;;;;;;5485255;26;20010;-76
2024/04/10 08:45:42;;;;;;;;;;;17.10;88.90;;;;;;5486474;26;20013;-77
2024/04/10 08:48:08;;;;;;;3.42;1.10;;;17.00;88.90;;;;;;5484933;26;20356;-76
2024/04/10 08:50:35;;;;;;;2.80;1.10;;;17.00;88.90;;;;;;5483586;26;20005;-77
2024/04/10 08:53:02;;;;;;;3.75;1.10;;;17.00;88.90;;;;;;5483339;26;20789;-76
2024/04/10 08:55:30;;;;;;;3.40;1.10;;;17.10;88.90;;;;;;5483314;26;19994;-76
2024/04/10 08:57:56;;;;;;;4.07;1.15;;;17.10;88.90;;;;;;5484642;26;19990;-76
2024/04/10 09:00:21;;;;;;;2.13;0.90;;;17.10;88.90;;;;;;5485072;26;20062;-76
2024/04/10 09:02:47;;;;;;;3.20;1.20;;;17.10;88.80;;;;;;5485955;26;19994;-76
2024/04/10 09:05:12;;;;;;;5.55;1.45;;;17.10;88.80;;;;;;5485460;26;20005;-77
2024/04/10 09:07:38;;;;;;;2.65;1.00;;;17.10;88.70;;;;;;5483579;26;19998;-76
2024/04/10 09:10:11;;;;;;;4.30;1.40;;;17.10;88.60;;;;;;5484431;26;19986;-77
2024/04/10 09:12:36;;;;;;;4.05;1.20;;;17.20;88.60;;;;;;5483236;26;20006;-76
2024/04/10 09:15:11;;;;;;;4.25;1.40;;;17.20;88.50;;;;;;5489544;26;19998;-76
2024/04/10 09:17:37;;;;;;;3.22;1.00;;;17.30;88.50;;;;;;5488277;26;20009;-77
2024/04/10 09:20:18;;;;;;;1.65;0.88;;;17.30;88.40;;;;;;5486765;26;19994;-76
2024/04/10 09:22:44;;;;;;;2.85;1.08;;;17.30;88.40;;;;;;5488784;26;20021;-76
2024/04/10 09:25:13;;;;;;;2.40;0.90;;;17.30;88.30;;;;;;5487037;26;20002;-76
2024/04/10 09:27:39;;;;;;;2.60;1.00;;;17.30;88.20;;;;;;5487853;26;20074;-76
2024/04/10 09:30:05;;;;;;;2.50;0.95;;;17.30;88.30;;;;;;5486305;26;20002;-76
2024/04/10 09:32:33;;;;;;;4.10;1.33;;;17.30;88.40;;;;;;5488633;26;20009;-76
2024/04/10 09:35:01;;;;;;;1.92;0.93;;;17.30;88.50;;;;;;5488597;26;20066;-76
2024/04/10 09:37:30;;;;;;;2.97;1.00;;;17.20;88.60;;;;;;5486702;26;20034;-77
2024/04/10 09:39:56;;;;;;;3.08;1.30;;;17.20;88.80;;;;;;5487845;26;19994;-76
2024/04/10 09:42:32;;;;;;;1.80;1.00;;;17.00;88.90;;;;;;5488442;26;20065;-76
2024/04/10 09:45:12;;;;;;;1.95;0.95;;;17.10;89.10;;;;;;5488406;26;19998;-76
2024/04/10 09:47:42;;;;;;;1.25;0.90;;;17.10;89.30;;;;;;5488160;26;20013;-76
2024/04/10 09:50:12;;;;;;;3.47;1.20;;;17.00;89.40;;;;;;5488219;26;20450;-76
2024/04/10 09:52:39;;;;;;;2.90;1.00;;;17.00;89.40;;;;;;5488477;26;19994;-76
2024/04/10 09:55:05;;;;;;;2.67;1.13;;;17.00;89.50;;;;;;5489163;26;19994;-76
2024/04/10 09:57:32;;;;;;;2.60;1.17;;;17.00;89.50;;;;;;5488197;26;20043;-76
2024/04/10 10:00:00;;;;;;;2.33;1.10;;;17.00;89.50;;;;;;5485820;26;20454;-76
2024/04/10 10:02:26;;;;;;;2.80;1.00;;;17.00;89.50;;;;;;5488531;26;20005;-76
2024/04/10 10:04:52;;;;;;;3.13;1.20;;;17.00;89.50;;;;;;5485917;26;19994;-76
2024/04/10 10:07:24;;;;;;;2.05;1.00;;;17.00;89.50;;;;;;5487675;26;20009;-76
2024/04/10 10:09:50;;;;;;;2.20;1.00;;;17.00;89.60;;;;;;5486837;26;20026;-76
2024/04/10 10:12:26;;;;;;;2.42;1.15;;;17.00;89.60;;;;;;5486088;26;20397;-76
2024/04/10 10:14:51;;;;;;;2.05;0.85;;;17.00;89.70;;;;;;5487992;26;19994;-76
2024/04/10 10:17:26;;;;;;;3.05;1.17;;;16.90;89.70;;;;;;5485611;26;20020;-76
2024/04/10 10:19:52;;;;;;;2.13;1.13;;;16.90;89.70;;;;;;5487560;26;20029;-76
2024/04/10 10:22:18;;;;;;;3.15;1.20;;;16.90;89.80;;;;;;5487797;26;19994;-76
2024/04/10 10:24:44;;;;;;;1.98;1.00;;;16.90;89.70;;;;;;5485693;26;20006;-76
2024/04/10 10:27:09;;;;;;;2.33;0.90;;;16.90;89.70;;;;;;5485708;26;20731;-76
2024/04/10 10:29:36;;;;;;;2.88;1.00;;;17.00;89.70;;;;;;5485380;26;20008;-76
2024/04/10 10:32:09;;;;;;;1.63;0.82;;;16.90;89.70;;;;;;5488059;26;19994;-76
2024/04/10 10:34:34;;;;;;;1.92;0.82;;;16.90;89.80;;;;;;5487456;26;19994;-75
2024/04/10 10:37:06;;;;;;;2.22;0.88;;;16.90;89.80;;;;;;5485924;26;20009;-77
2024/04/10 10:39:32;;;;;;;2.63;1.00;;;16.90;89.90;;;;;;5485306;26;20043;-76
2024/04/10 10:42:02;;;;;;;1.95;1.00;;;16.90;89.90;;;;;;5486565;26;20034;-76
2024/04/10 10:44:28;;;;;;;2.10;1.10;;;16.90;89.90;;;;;;5485300;26;20009;-76
2024/04/10 10:46:57;;;;;;;1.77;0.93;;;16.90;89.80;;;;;;5486620;26;20030;-76
2024/04/10 10:49:25;;;;;;;2.83;1.20;;;16.90;89.80;;;;;;5487201;26;20074;-76
2024/04/10 10:51:55;;;;;;;1.85;0.90;;;16.90;89.70;;;;;;5489377;26;20039;-78
2024/04/10 10:54:21;;;;;;;2.03;1.02;;;16.90;89.70;;;;;;5485916;26;20482;-76
2024/04/10 10:56:47;;;;;;;3.28;1.10;;;16.90;89.60;;;;;;5485357;26;19994;-77
2024/04/10 10:59:14;;;;;;;2.42;1.00;;;16.90;89.60;;;;;;5487162;26;20012;-76
2024/04/10 11:01:40;;;;;;;1.88;1.00;;;16.90;89.60;;;;;;5485362;26;20442;-76
2024/04/10 11:04:19;;;;;;;2.25;1.00;;;16.90;89.70;;;;;;5484660;26;19998;-76
2024/04/10 11:06:45;;;;;;;2.45;1.10;;;16.90;89.70;;;;;;5486776;26;20860;-76
2024/04/10 11:09:12;;;;;;;2.22;1.23;;;16.90;89.80;;;;;;5486682;26;20006;-76
2024/04/10 11:11:38;;;;;;;2.03;1.00;;;16.80;89.80;;;;;;5484281;26;20009;-77
2024/04/10 11:14:04;;;;;;;2.42;1.15;;;16.80;89.90;;;;;;5486239;26;20002;-76
2024/04/10 11:16:34;;;;;;;2.45;1.13;;;16.80;89.90;;;;;;5485482;26;20011;-76
2024/04/10 11:19:00;;;;;;;2.28;1.00;;;16.80;89.90;;;;;;5485857;26;19997;-76
2024/04/10 11:21:27;;;;;;;2.33;1.10;;;16.80;90.00;;;;;;5486922;26;20009;-76
2024/04/10 11:23:52;;;;;;;2.83;1.00;;;16.80;90.00;;;;;;5485654;26;20005;-76
2024/04/10 11:26:18;;;;;;;3.95;1.30;;;16.80;90.00;;;;;;5485304;26;19998;-75
2024/04/10 11:28:51;;;;;;;1.45;0.90;;;16.80;90.00;;;;;;5487179;26;19997;-76
2024/04/10 11:31:17;;;;;;;2.40;1.05;;;16.80;90.00;;;;;;5484572;26;19994;-76
2024/04/10 11:33:42;;;;;;;2.20;1.05;;;16.80;90.00;;;;;;5487058;26;20062;-76
2024/04/10 11:36:08;;;;;;;1.98;1.02;;;16.80;90.00;;;;;;5484895;26;19994;-76
2024/04/10 11:38:37;;;;;;;3.15;1.20;;;16.80;90.00;;;;;;5484924;26;19998;-77
2024/04/10 11:41:07;;;;;;;2.03;1.20;;;16.80;90.00;;;;;;5484173;26;19994;-76
2024/04/10 11:43:33;;;;;;;1.92;0.98;;;16.80;90.00;;;;;;5484212;26;19994;-76
2024/04/10 11:45:59;;;;;;;2.65;1.15;;;16.70;90.10;;;;;;5486822;26;20009;-76
2024/04/10 11:48:25;;;;;;;1.95;0.95;;;16.70;90.10;;;;;;5485634;26;20042;-77
2024/04/10 11:50:52;;;;;;;1.95;0.93;;;16.70;90.10;;;;;;5485877;26;20002;-76
2024/04/10 11:53:18;;;;;;;2.17;1.08;;;16.70;90.10;;;;;;5485264;26;19998;-76
2024/04/10 11:55:43;;;;;;;2.17;1.00;;;16.70;90.10;;;;;;5484857;26;19994;-76
2024/04/10 11:58:09;;;;;;;3.03;1.13;;;16.70;90.10;;;;;;5486501;26;20461;-76
2024/04/10 12:00:34;;;;;;;2.65;1.20;;;16.60;90.10;;;;;;5486230;26;20006;-76
2024/04/10 12:03:00;;;;;;;2.75;1.00;;;16.80;90.00;;;;;;5484256;26;20025;-76
2024/04/10 12:05:26;;;;;;;3.72;1.27;;;16.80;89.90;;;;;;5484285;26;19990;-76
2024/04/10 12:07:52;;;;;;;2.40;1.10;;;16.70;89.70;;;;;;5485822;26;20005;-76
2024/04/10 12:10:18;;;;;;;1.95;0.90;;;16.80;89.60;;;;;;5486267;26;20018;-77
2024/04/10 12:12:48;;;;;;;2.40;1.10;;;16.90;89.50;;;;;;5483900;26;20040;-76
2024/04/10 12:15:14;;;;;;;1.80;0.95;;;16.80;89.40;;;;;;5485877;26;20001;-76
2024/04/10 12:17:39;;;;;;;1.73;1.00;;;16.90;89.40;;;;;;5486101;26;19991;-77
2024/04/10 12:20:06;;;;;;;1.88;1.02;;;16.90;89.40;;;;;;5486932;26;20334;-77
2024/04/10 12:22:31;;;;;;;2.53;1.00;;;16.90;89.50;;;;;;5487658;26;20004;-76
2024/04/10 12:24:57;;;;;;;2.22;1.10;;;16.90;89.50;;;;;;5484692;26;20694;-76
2024/04/10 12:27:23;;;;;;;1.60;1.00;;;16.80;89.40;;;;;;5484295;26;20334;-76
2024/04/10 12:29:48;;;;;;;1.80;1.20;;;16.90;89.40;;;;;;5483638;26;20047;-76
2024/04/10 12:32:14;;;;;;;2.70;1.20;;;16.80;89.30;;;;;;5484422;26;20034;-78
2024/04/10 12:34:41;;;;;;;2.45;1.17;;;16.90;89.40;;;;;;5485519;26;20035;-76
2024/04/10 12:39:51;;;;;;;2.08;1.02;;;16.90;89.40;;;;;;5485682;26;20065;-77
2024/04/10 12:42:16;;;;;;;2.00;1.10;;;16.90;89.50;;;;;;5483274;26;20722;-76
2024/04/10 12:44:42;;;;;;;2.17;1.00;;;16.90;89.50;;;;;;5485486;26;19994;-76
2024/04/10 12:47:08;;;;;;;2.63;1.10;;;16.90;89.60;;;;;;5483658;26;20018;-77
2024/04/10 12:49:36;;;;;;;2.00;1.08;;;16.90;89.50;;;;;;5487841;26;19998;-76